Time;durP1;ratioP1;P1;durP2;ratioP2;P2;SDS_P1;SDS_P2;PMS_P1;PMS_P2;Temp;Humidity;BMP_temperature;BMP_pressure;BME280_temperature;BME280_humidity;BME280_pressure;Samples;Min_cycle;Max_cycle;Signal;HPM_P1;HPM_P2
2023/02/07 00:07:16;;;;;;;185.10;116.10;;;;;;;-10.86;82.47;101905.09;440342;1253;144245;-68
2023/02/07 00:17:23;;;;;;;189.00;118.60;;;;;;;-10.94;82.59;101904.73;437340;1253;143683;-64
2023/02/07 00:27:29;;;;;;;182.60;118.30;;;;;;;-11.00;83.02;101906.10;441358;1252;142407;-64
2023/02/07 00:37:35;;;;;;;164.70;107.30;;;;;;;-11.08;83.19;101877.90;435442;1251;214171;-65
2023/02/07 00:47:41;;;;;;;170.60;106.50;;;;;;;-11.24;82.69;101859.65;438004;1251;142277;-64
2023/02/07 00:57:48;;;;;;;177.60;109.90;;;;;;;-11.39;82.61;101860.59;436066;1253;144257;-65
2023/02/07 01:07:54;;;;;;;165.90;108.30;;;;;;;-11.49;82.64;101846.77;434888;1253;142388;-64
2023/02/07 01:18:00;;;;;;;176.20;113.70;;;;;;;-11.50;83.43;101841.51;437065;1253;142320;-65
2023/02/07 01:28:07;;;;;;;180.80;116.20;;;;;;;-11.42;83.80;101832.48;435317;1251;142982;-66
2023/02/07 01:38:13;;;;;;;189.10;114.00;;;;;;;-11.11;84.68;101824.91;439426;1252;142934;-66
2023/02/07 01:48:23;;;;;;;146.10;92.00;;;;;;;-10.76;84.93;101823.71;434379;1253;143083;-65
2023/02/07 01:58:30;;;;;;;164.80;106.40;;;;;;;-10.30;85.96;101831.77;437530;1253;142838;-65
2023/02/07 02:08:36;;;;;;;151.10;99.40;;;;;;;-9.85;86.26;101836.61;434902;1250;142492;-66
2023/02/07 02:18:53;;;;;;;139.20;86.70;;;;;;;-9.49;86.10;101817.05;435740;1251;144206;-66
2023/02/07 02:29:40;;;;;;;112.50;72.70;;;;;;;-9.09;86.75;101813.91;440367;1249;142790;-65
2023/02/07 02:39:56;;;;;;;97.20;68.50;;;;;;;-8.63;87.39;101827.42;438776;1251;143959;-66
2023/02/07 02:50:02;;;;;;;78.90;53.20;;;;;;;-8.22;88.06;101823.27;437551;1251;142279;-66
2023/02/07 03:00:31;;;;;;;72.90;43.70;;;;;;;-7.85;88.77;101816.36;434224;1251;143371;-64
2023/02/07 03:10:45;;;;;;;61.80;40.00;;;;;;;-7.56;89.36;101817.22;443211;1250;143174;-64
2023/02/07 03:20:56;;;;;;;60.20;37.00;;;;;;;-7.31;89.54;101824.11;437453;1251;142444;-65
2023/02/07 03:31:05;;;;;;;57.10;35.30;;;;;;;-7.10;89.70;101823.02;439815;1249;142606;-62
2023/02/07 03:41:16;;;;;;;53.70;35.00;;;;;;;-6.91;89.63;101824.80;437510;1249;142848;-64
2023/02/07 03:51:22;;;;;;;50.70;34.60;;;;;;;-6.86;89.40;101823.15;435765;1251;142793;-62
2023/02/07 04:01:28;;;;;;;59.70;37.50;;;;;;;-6.76;89.62;101824.96;442491;1249;143005;-62
2023/02/07 04:11:34;;;;;;;58.00;35.50;;;;;;;-6.63;89.23;101823.78;438216;1251;142651;-63
2023/02/07 04:21:40;;;;;;;57.50;37.10;;;;;;;-6.50;89.19;101811.41;437087;1251;143869;-63
2023/02/07 04:31:46;;;;;;;53.10;34.70;;;;;;;-6.38;89.42;101803.56;435629;1251;142805;-62
2023/02/07 04:41:53;;;;;;;63.80;41.10;;;;;;;-6.26;89.55;101795.85;440761;1249;142840;-64
2023/02/07 04:51:59;;;;;;;77.30;46.80;;;;;;;-6.14;89.93;101805.03;438069;1249;142837;-62
2023/02/07 05:02:05;;;;;;;68.30;45.60;;;;;;;-6.02;89.61;101805.64;438320;1251;142815;-63
2023/02/07 05:12:11;;;;;;;63.70;38.30;;;;;;;-5.99;89.60;101805.92;443375;1250;143356;-62
2023/02/07 05:22:17;;;;;;;65.30;38.10;;;;;;;-5.94;89.73;101803.58;436043;1249;143239;-63
2023/02/07 05:43:16;;;;;;;65.30;39.60;;;;;;;-5.82;89.82;101829.09;437122;1248;143067;-63
2023/02/07 05:53:23;;;;;;;59.80;38.60;;;;;;;-5.79;90.07;101838.95;435176;1249;143226;-63
2023/02/07 06:03:29;;;;;;;65.40;42.40;;;;;;;-5.73;90.41;101837.11;442517;1250;144648;-62
2023/02/07 06:13:35;;;;;;;61.00;39.30;;;;;;;-5.64;90.71;101842.10;442504;1249;142587;-63
2023/02/07 06:23:41;;;;;;;54.50;36.70;;;;;;;-5.51;91.17;101854.52;448378;1249;142829;-63
2023/02/07 06:33:47;;;;;;;51.40;34.40;;;;;;;-5.32;91.99;101868.91;450309;1250;142651;-63
2023/02/07 06:43:53;;;;;;;62.00;35.40;;;;;;;-5.16;92.40;101866.95;451111;1250;144648;-63
2023/02/07 06:54:02;;;;;;;50.10;30.30;;;;;;;-4.93;93.10;101857.68;450895;1250;142779;-62
2023/02/07 07:04:08;;;;;;;47.60;29.50;;;;;;;-4.75;93.15;101856.77;450395;1249;145096;-63
2023/02/07 07:14:14;;;;;;;46.70;31.40;;;;;;;-4.60;93.24;101862.10;442173;1250;142253;-63
2023/02/07 07:24:20;;;;;;;44.20;26.70;;;;;;;-4.48;93.33;101866.95;444056;1250;143179;-63
2023/02/07 07:34:26;;;;;;;41.40;27.10;;;;;;;-4.35;93.37;101870.30;450440;1249;143250;-64
2023/02/07 07:44:31;;;;;;;43.20;28.30;;;;;;;-4.19;93.24;101866.72;451240;1249;144069;-63
2023/02/07 07:54:37;;;;;;;40.20;27.20;;;;;;;-4.00;93.24;101867.70;440720;1249;142400;-63
2023/02/07 08:04:43;;;;;;;37.30;23.50;;;;;;;-3.84;93.25;101867.52;451105;1249;142886;-63
2023/02/07 08:14:49;;;;;;;39.10;26.80;;;;;;;-3.66;93.19;101868.26;449883;1250;143326;-62
2023/02/07 08:24:55;;;;;;;;;;;;;;;-3.51;92.89;101871.61;450447;1250;143627;-62
2023/02/07 08:35:00;;;;;;;34.60;22.20;;;;;;;-3.50;92.36;101878.15;451460;1250;129605;-63
2023/02/07 08:45:07;;;;;;;34.30;22.30;;;;;;;-3.44;92.05;101886.39;451284;1250;143781;-62
2023/02/07 08:55:13;;;;;;;38.30;22.10;;;;;;;-3.27;92.07;101890.15;450435;1249;143508;-63
2023/02/07 09:05:19;;;;;;;39.40;22.30;;;;;;;-3.10;91.52;101894.27;451239;1249;142955;-63
2023/02/07 09:15:25;;;;;;;31.20;22.40;;;;;;;-3.06;91.04;101902.25;451140;1250;142626;-63
2023/02/07 09:25:29;;;;;;;;;;;;;;;-2.91;90.84;101910.90;450687;1249;198610;-63
2023/02/07 09:35:40;;;;;;;30.60;19.50;;;;;;;-2.83;90.33;101916.77;451372;1249;129871;-63
2023/02/07 09:45:49;;;;;;;32.00;21.00;;;;;;;-2.86;89.95;101914.13;450325;1250;188860;-63
2023/02/07 09:55:58;;;;;;;36.30;22.30;;;;;;;-2.81;89.71;101914.77;451300;1250;143259;-63
2023/02/07 10:06:09;;;;;;;34.00;22.20;;;;;;;-2.85;89.58;101907.66;451234;1249;142769;-63
2023/02/07 10:16:38;;;;;;;31.10;22.50;;;;;;;-2.78;89.45;101901.48;446264;1250;143753;-63
2023/02/07 10:26:48;;;;;;;37.50;23.50;;;;;;;-2.80;89.23;101899.21;451234;1249;144405;-63
2023/02/07 10:36:56;;;;;;;32.50;21.70;;;;;;;-2.78;89.27;101889.17;450389;1249;142515;-63
2023/02/07 10:47:06;;;;;;;33.00;21.50;;;;;;;-2.66;89.09;101873.55;451192;1250;142827;-62
2023/02/07 10:57:20;;;;;;;30.40;20.40;;;;;;;-2.44;89.26;101866.05;451162;1250;143852;-63
2023/02/07 11:07:26;;;;;;;35.10;22.20;;;;;;;-2.07;88.89;101860.83;450501;1249;142615;-63
2023/02/07 11:17:36;;;;;;;31.80;20.90;;;;;;;-1.61;88.57;101846.79;451065;1250;142416;-61
2023/02/07 11:27:46;;;;;;;26.10;17.70;;;;;;;-1.27;87.06;101834.27;450394;1249;142512;-63
2023/02/07 11:38:01;;;;;;;22.20;13.00;;;;;;;-1.37;85.53;101838.89;451187;1249;142498;-64
2023/02/07 11:48:18;;;;;;;13.10;11.30;;;;;;;-1.36;84.48;101830.50;451236;1250;142942;-63
2023/02/07 11:58:33;;;;;;;12.50;9.80;;;;;;;-1.24;84.15;101830.03;450299;1251;143128;-63
2023/02/07 12:08:41;;;;;;;16.20;9.80;;;;;;;-0.86;83.42;101820.30;451196;1249;142400;-62
2023/02/07 12:18:53;;;;;;;18.30;9.50;;;;;;;-0.77;82.43;101814.11;450292;1250;142215;-62
2023/02/07 12:29:15;;;;;;;10.50;7.80;;;;;;;-0.71;81.56;101809.74;451145;1249;142106;-63
2023/02/07 12:39:29;;;;;;;9.50;7.20;;;;;;;-0.75;81.50;101808.80;451164;1250;142224;-62
2023/02/07 12:50:03;;;;;;;10.20;9.10;;;;;;;-0.74;80.94;101800.92;450718;1249;151918;-62
2023/02/07 13:00:15;;;;;;;13.10;9.90;;;;;;;-0.72;80.85;101797.19;440021;1252;142413;-62
2023/02/07 13:10:30;;;;;;;14.10;10.60;;;;;;;-0.85;80.48;101792.64;450153;1250;142449;-63
2023/02/07 13:20:51;;;;;;;14.00;11.10;;;;;;;-1.06;80.08;101787.08;444797;1249;141702;-63
2023/02/07 13:30:58;;;;;;;19.00;12.60;;;;;;;-1.13;80.31;101793.32;450271;1249;142623;-64
2023/02/07 13:41:11;;;;;;;17.50;11.10;;;;;;;-1.15;80.37;101789.48;451101;1249;142394;-63
2023/02/07 13:51:27;;;;;;;16.60;11.30;;;;;;;-1.21;80.34;101788.68;451073;1250;142952;-63
2023/02/07 14:01:35;;;;;;;21.00;15.00;;;;;;;-1.29;80.57;101778.22;446325;1250;208681;-62
2023/02/07 14:11:43;;;;;;;18.50;13.70;;;;;;;-1.19;80.89;101780.30;450819;1250;142488;-63
2023/02/07 14:22:16;;;;;;;19.20;14.90;;;;;;;-1.30;80.82;101787.83;450257;1249;142897;-64
2023/02/07 14:32:31;;;;;;;22.70;15.50;;;;;;;-1.40;80.99;101784.70;451138;1250;143478;-63
2023/02/07 14:42:38;;;;;;;18.30;14.40;;;;;;;-1.46;81.19;101799.86;450241;1250;142719;-63
2023/02/07 14:52:46;;;;;;;18.80;13.50;;;;;;;-1.55;81.03;101808.77;451067;1250;142088;-64
2023/02/07 15:02:56;;;;;;;20.90;14.10;;;;;;;-1.73;80.99;101822.62;448089;1250;143460;-63
2023/02/07 15:13:06;;;;;;;20.00;13.80;;;;;;;-1.89;81.53;101837.73;450183;1250;143906;-63
2023/02/07 15:23:15;;;;;;;19.40;14.40;;;;;;;-2.00;81.78;101850.33;451097;1249;142476;-63
2023/02/07 15:33:26;;;;;;;21.60;14.30;;;;;;;-2.12;81.84;101857.27;448592;1251;142993;-64
2023/02/07 15:43:34;;;;;;;22.50;16.50;;;;;;;-2.20;82.26;101867.17;435159;1253;208527;-63
2023/02/07 15:53:40;;;;;;;27.30;18.70;;;;;;;-2.32;82.66;101873.23;447678;1251;142304;-62
2023/02/07 16:03:45;;;;;;;;;;;;;;;-2.38;83.21;101884.23;450070;1249;143028;-63
2023/02/07 16:13:55;;;;;;;19.80;15.40;;;;;;;-2.45;83.08;101892.29;451153;1251;130190;-63
2023/02/07 16:24:05;;;;;;;22.30;15.70;;;;;;;-2.48;83.28;101905.94;451025;1250;142463;-63
2023/02/07 16:34:13;;;;;;;18.40;14.70;;;;;;;-2.54;83.36;101910.73;450250;1250;144224;-64
2023/02/07 16:44:23;;;;;;;28.00;17.80;;;;;;;-2.59;83.47;101914.36;449998;1251;143680;-63
2023/02/07 16:54:29;;;;;;;23.20;15.90;;;;;;;-2.64;83.59;101915.42;450960;1251;143444;-63
2023/02/07 17:04:35;;;;;;;28.10;19.50;;;;;;;-2.69;83.86;101918.04;450517;1253;198555;-63
2023/02/07 17:14:41;;;;;;;23.20;16.90;;;;;;;-2.70;84.03;101934.98;450758;1250;142702;-62
2023/02/07 17:24:47;;;;;;;23.60;15.40;;;;;;;-2.71;84.23;101935.98;450223;1250;143644;-62
2023/02/07 17:34:53;;;;;;;22.70;13.70;;;;;;;-2.70;84.55;101944.77;451032;1250;142566;-63
2023/02/07 17:44:59;;;;;;;22.60;13.60;;;;;;;-2.69;84.34;101950.28;451039;1253;142991;-63
2023/02/07 17:55:06;;;;;;;19.70;12.80;;;;;;;-2.71;84.53;101950.56;450178;1251;143154;-63
2023/02/07 18:05:12;;;;;;;23.80;14.80;;;;;;;-2.70;84.77;101960.20;450929;1251;143852;-63
2023/02/07 18:15:19;;;;;;;20.10;13.40;;;;;;;-2.68;84.80;101973.98;436352;1253;142134;-62
2023/02/07 18:25:26;;;;;;;22.30;16.40;;;;;;;-2.70;84.78;101979.77;450252;1251;143368;-63
2023/02/07 18:35:33;;;;;;;22.60;16.90;;;;;;;-2.69;85.12;101989.91;451041;1249;143175;-62
2023/02/07 18:45:42;;;;;;;27.70;18.10;;;;;;;-2.66;85.23;101997.34;450196;1251;143007;-62
2023/02/07 18:55:48;;;;;;;25.70;17.10;;;;;;;-2.64;85.51;102000.13;450982;1251;142909;-62
2023/02/07 19:05:58;;;;;;;28.20;17.60;;;;;;;-2.64;85.22;102000.33;450960;1250;143957;-62
2023/02/07 19:16:06;;;;;;;26.70;19.00;;;;;;;-2.62;85.31;101999.69;450120;1251;142789;-63
2023/02/07 19:26:12;;;;;;;31.20;19.90;;;;;;;-2.62;85.19;101994.88;451063;1251;143112;-63
2023/02/07 19:36:21;;;;;;;26.30;17.90;;;;;;;-2.65;85.43;101995.66;451076;1249;143447;-65
2023/02/07 19:46:27;;;;;;;31.80;19.90;;;;;;;-2.67;85.52;101998.02;450315;1250;141774;-65
2023/02/07 19:56:35;;;;;;;32.30;21.30;;;;;;;-2.64;85.44;101987.48;451033;1250;142932;-64
2023/02/07 20:06:41;;;;;;;31.50;20.00;;;;;;;-2.61;85.53;101985.66;450272;1251;143086;-67
2023/02/07 20:16:47;;;;;;;24.90;19.30;;;;;;;-2.58;85.70;101991.09;450801;1251;143326;-67
2023/02/07 20:26:53;;;;;;;34.50;22.30;;;;;;;-2.57;85.39;101996.59;450952;1251;143260;-68
2023/02/07 20:36:59;;;;;;;23.90;16.70;;;;;;;-2.58;85.38;101994.99;448722;1250;143598;-67
2023/02/07 20:47:04;;;;;;;;;;;;;;;-2.57;85.61;101999.32;450887;1251;144609;-67
2023/02/07 20:57:10;;;;;;;15.40;10.10;;;;;;;-2.54;84.81;102008.69;440145;1249;128369;-67
2023/02/07 21:07:16;;;;;;;21.70;13.60;;;;;;;-2.55;84.57;102022.02;446998;1249;142319;-68
2023/02/07 21:17:23;;;;;;;20.00;13.10;;;;;;;-2.54;84.51;102036.65;442618;1250;143199;-66
2023/02/07 21:27:29;;;;;;;9.20;7.30;;;;;;;-2.55;84.04;102045.86;449434;1250;143151;-68
2023/02/07 21:37:35;;;;;;;10.80;6.40;;;;;;;-2.55;83.23;102058.02;450556;1249;208677;-67
2023/02/07 21:47:41;;;;;;;4.70;3.70;;;;;;;-2.56;82.71;102062.98;440057;1249;142374;-67
2023/02/07 21:57:47;;;;;;;7.10;5.70;;;;;;;-2.61;82.49;102066.43;450153;1249;142617;-66
2023/02/07 22:07:52;;;;;;;;;;;;;;;-2.59;82.38;102071.46;443547;1250;142950;-65
2023/02/07 22:17:58;;;;;;;9.50;6.10;;;;;;;-2.60;82.40;102073.66;448543;1249;128656;-65
2023/02/07 22:28:04;;;;;;;6.20;4.10;;;;;;;-2.59;82.24;102080.21;450232;1250;142405;-67
2023/02/07 22:38:12;;;;;;;17.70;7.30;;;;;;;-2.58;81.76;102075.27;449519;1250;143068;-67
2023/02/07 22:48:18;;;;;;;8.40;6.20;;;;;;;-2.54;81.79;102073.66;451152;1250;142733;-67
2023/02/07 22:58:24;;;;;;;8.90;6.80;;;;;;;-2.51;81.42;102083.19;450295;1250;144249;-66
2023/02/07 23:08:30;;;;;;;13.60;9.90;;;;;;;-2.50;81.69;102082.57;451030;1250;143942;-67
2023/02/07 23:18:36;;;;;;;8.40;6.60;;;;;;;-2.46;81.72;102085.58;450360;1250;143334;-66
2023/02/07 23:28:43;;;;;;;11.40;6.50;;;;;;;-2.45;81.66;102088.68;451053;1249;141592;-66
2023/02/07 23:38:50;;;;;;;8.60;7.70;;;;;;;-2.44;81.65;102089.59;450854;1250;142885;-67
2023/02/07 23:48:56;;;;;;;14.30;9.20;;;;;;;-2.42;81.81;102097.02;450303;1250;142125;-67
2023/02/07 23:59:02;;;;;;;16.40;12.60;;;;;;;-2.43;81.72;102094.59;451125;1250;142738;-66
